createdAt,value
2022-10-18T00:00:14.123Z,63.22
2022-10-18T00:03:15.760Z,62.92
2022-10-18T00:06:17.358Z,62.87
2022-10-18T00:09:18.953Z,63.98
2022-10-18T00:12:20.727Z,64.63
2022-10-18T00:15:22.529Z,64.06
2022-10-18T00:18:24.644Z,64.00
2022-10-18T00:21:26.924Z,64.63
2022-10-18T00:24:28.523Z,64.86
2022-10-18T00:27:30.703Z,69.21
2022-10-18T00:30:32.664Z,68.07
2022-10-18T00:33:34.256Z,65.64
2022-10-18T00:36:35.919Z,69.22
2022-10-18T00:39:37.557Z,69.58
2022-10-18T00:42:39.168Z,68.67
2022-10-18T00:45:40.954Z,70.52
2022-10-18T00:48:42.695Z,69.50
2022-10-18T00:52:16.972Z,69.77
2022-10-18T00:55:18.893Z,69.76
2022-10-18T00:58:20.524Z,71.41
2022-10-18T01:01:24.527Z,71.14
2022-10-18T01:04:29.238Z,72.98
2022-10-18T01:08:00.003Z,75.29
2022-10-18T01:11:45.175Z,75.76
2022-10-18T01:15:03.625Z,76.58
2022-10-18T01:18:24.169Z,77.76
2022-10-18T01:21:55.373Z,77.01
2022-10-18T01:25:00.052Z,77.64
2022-10-18T01:28:52.960Z,77.52
2022-10-18T01:32:01.512Z,79.96
2022-10-18T01:35:07.548Z,81.31
2022-10-18T01:38:14.070Z,80.83
2022-10-18T01:41:19.330Z,79.58
2022-10-18T01:44:27.115Z,76.53
2022-10-18T01:47:29.266Z,72.93
2022-10-18T01:50:33.947Z,70.67
2022-10-18T01:53:35.798Z,68.91
2022-10-18T01:56:46.914Z,68.71
2022-10-18T02:00:03.944Z,68.83
2022-10-18T02:03:28.931Z,68.01
2022-10-18T02:06:38.496Z,67.33
2022-10-18T02:09:50.619Z,67.79
2022-10-18T02:12:54.771Z,68.25
2022-10-18T02:16:01.637Z,67.76
2022-10-18T02:19:14.485Z,66.45
2022-10-18T02:22:17.495Z,66.61
2022-10-18T02:25:23.885Z,66.09
2022-10-18T02:28:29.306Z,66.30
2022-10-18T02:31:46.459Z,66.35
2022-10-18T02:35:13.127Z,65.10
2022-10-18T02:38:17.839Z,64.80
2022-10-18T02:41:25.023Z,64.92
2022-10-18T02:44:26.808Z,65.93
2022-10-18T02:47:28.594Z,66.34
2022-10-18T02:50:30.346Z,65.48
2022-10-18T02:53:32.029Z,66.21
2022-10-18T02:56:33.760Z,65.89
2022-10-18T02:59:35.471Z,65.98
2022-10-18T03:02:37.090Z,66.23
2022-10-18T03:05:38.648Z,66.33
2022-10-18T03:08:40.381Z,66.40
2022-10-18T03:11:42.036Z,66.21
2022-10-18T03:14:43.728Z,66.29
2022-10-18T03:17:45.344Z,67.49
2022-10-18T03:20:47.081Z,67.19
2022-10-18T03:23:48.715Z,66.76
2022-10-18T03:26:50.391Z,66.22
2022-10-18T03:29:52.002Z,66.10
2022-10-18T03:32:54.341Z,66.74
2022-10-18T03:35:56.022Z,66.99
2022-10-18T03:38:57.645Z,67.22
2022-10-18T03:41:59.238Z,66.99
2022-10-18T03:45:00.837Z,66.81
2022-10-18T03:48:02.529Z,67.01
2022-10-18T03:51:04.210Z,67.24
2022-10-18T03:54:05.899Z,67.57
2022-10-18T03:57:07.539Z,67.11
2022-10-18T04:00:09.769Z,67.60
2022-10-18T04:03:14.198Z,67.72
2022-10-18T04:06:15.837Z,67.62
2022-10-18T04:09:17.886Z,68.49
2022-10-18T04:12:19.502Z,68.38
2022-10-18T04:15:21.331Z,68.49
2022-10-18T04:18:22.946Z,68.48
2022-10-18T04:21:24.592Z,69.09
2022-10-18T04:24:26.249Z,69.13
2022-10-18T04:27:27.848Z,69.09
2022-10-18T04:30:29.558Z,68.97
2022-10-18T04:33:31.192Z,69.02
2022-10-18T04:36:32.891Z,69.19
2022-10-18T04:39:34.490Z,68.87
2022-10-18T04:42:36.186Z,68.96
2022-10-18T04:45:37.871Z,68.71
2022-10-18T04:48:39.600Z,69.31
2022-10-18T04:51:41.289Z,68.30
2022-10-18T04:54:42.974Z,68.40
2022-10-18T04:57:44.583Z,68.59
2022-10-18T05:00:47.833Z,68.76
2022-10-18T05:03:54.147Z,68.96
2022-10-18T05:06:55.755Z,69.33
2022-10-18T05:09:57.411Z,68.74
2022-10-18T05:12:59.049Z,68.88
2022-10-18T05:16:00.911Z,69.63
2022-10-18T05:19:04.689Z,69.09
2022-10-18T05:22:06.613Z,68.93
2022-10-18T05:25:08.872Z,69.66
2022-10-18T05:28:21.113Z,69.92
2022-10-18T05:31:32.600Z,70.05
2022-10-18T05:34:34.326Z,69.12
2022-10-18T05:37:35.906Z,70.36
2022-10-18T05:40:40.594Z,69.93
2022-10-18T05:43:42.266Z,69.61
2022-10-18T05:46:43.975Z,69.59
2022-10-18T05:49:45.634Z,69.26
2022-10-18T05:52:47.191Z,69.59
2022-10-18T05:55:48.792Z,69.36
2022-10-18T05:58:51.717Z,69.60
2022-10-18T06:01:53.325Z,69.29
2022-10-18T06:04:54.923Z,69.73
2022-10-18T06:07:57.174Z,69.77
2022-10-18T06:10:59.163Z,68.75
2022-10-18T06:14:01.936Z,68.56
2022-10-18T06:17:04.197Z,69.07
2022-10-18T06:20:07.423Z,69.77
2022-10-18T06:23:09.032Z,68.92
2022-10-18T06:26:11.879Z,69.35
2022-10-18T06:29:14.032Z,69.27
2022-10-18T06:32:15.993Z,70.08
2022-10-18T06:35:17.572Z,69.48
2022-10-18T06:38:19.172Z,68.97
2022-10-18T06:41:22.353Z,68.78
2022-10-18T06:44:26.618Z,69.08
2022-10-18T06:47:28.246Z,69.36
2022-10-18T06:50:29.857Z,69.44
2022-10-18T06:53:40.754Z,69.83
2022-10-18T06:56:46.084Z,69.33
2022-10-18T06:59:47.753Z,68.40
2022-10-18T07:02:49.392Z,68.35
2022-10-18T07:05:51.161Z,68.80
2022-10-18T07:08:54.223Z,69.15
2022-10-18T07:11:56.042Z,68.83
2022-10-18T07:14:57.717Z,69.53
2022-10-18T07:17:59.349Z,69.09
2022-10-18T07:21:12.763Z,68.79
2022-10-18T07:24:14.474Z,68.65
2022-10-18T07:27:16.113Z,68.62
2022-10-18T07:30:17.839Z,69.03
2022-10-18T07:33:20.742Z,69.43
2022-10-18T07:36:22.472Z,69.03
2022-10-18T07:39:24.110Z,70.08
2022-10-18T07:42:26.064Z,69.93
2022-10-18T07:45:27.714Z,69.38
2022-10-18T07:48:29.620Z,71.22
2022-10-18T07:51:32.784Z,72.67
2022-10-18T07:54:34.387Z,73.41
2022-10-18T07:57:35.942Z,74.23
2022-10-18T08:00:37.875Z,77.42
2022-10-18T08:03:40.506Z,77.29
2022-10-18T08:06:42.215Z,76.64
2022-10-18T08:09:43.953Z,76.65
2022-10-18T08:12:45.544Z,76.72
2022-10-18T08:15:47.280Z,76.82
2022-10-18T08:18:48.980Z,78.83
2022-10-18T08:21:50.615Z,80.96
2022-10-18T08:24:52.191Z,81.46
2022-10-18T08:27:53.764Z,77.63
2022-10-18T08:33:57.554Z,74.77
2022-10-18T08:36:59.213Z,73.39
2022-10-18T08:40:01.396Z,72.38
2022-10-18T08:43:25.461Z,73.40
2022-10-18T08:46:28.382Z,70.56
2022-10-18T08:49:38.195Z,70.07
2022-10-18T08:53:20.456Z,71.06
2022-10-18T08:56:24.384Z,71.29
2022-10-18T08:59:29.113Z,68.49
2022-10-18T09:02:41.851Z,69.38
2022-10-18T09:05:49.542Z,66.97
2022-10-18T09:09:23.465Z,66.69
2022-10-18T09:13:16.199Z,66.90
2022-10-18T09:16:26.875Z,67.58
2022-10-18T09:19:55.003Z,68.25
2022-10-18T09:23:12.628Z,67.27
2022-10-18T09:26:24.827Z,67.72
2022-10-18T09:29:29.440Z,67.97
2022-10-18T09:32:49.533Z,69.32
2022-10-18T09:35:54.540Z,69.00
2022-10-18T09:39:02.155Z,69.39
2022-10-18T09:42:30.235Z,69.33
2022-10-18T09:45:39.096Z,69.28
2022-10-18T09:48:44.942Z,68.54
2022-10-18T09:51:49.255Z,67.73
2022-10-18T09:55:01.220Z,68.13
2022-10-18T09:58:06.067Z,67.30
2022-10-18T10:01:09.557Z,66.46
2022-10-18T10:04:11.154Z,66.17
2022-10-18T10:07:17.031Z,67.78
2022-10-18T10:10:25.548Z,66.49
2022-10-18T10:13:27.991Z,66.58
2022-10-18T10:16:29.933Z,65.93
2022-10-18T10:19:34.748Z,66.27
2022-10-18T10:22:40.315Z,64.87
2022-10-18T10:25:43.337Z,62.40
2022-10-18T10:28:48.674Z,64.11
2022-10-18T10:32:04.017Z,62.30
2022-10-18T10:35:33.837Z,59.67
2022-10-18T10:38:37.043Z,62.30
2022-10-18T10:41:40.755Z,62.23
2022-10-18T10:44:55.118Z,59.60
2022-10-18T10:48:04.939Z,59.41
2022-10-18T10:51:09.745Z,58.07
2022-10-18T10:54:21.907Z,57.99
2022-10-18T10:57:28.025Z,59.10
2022-10-18T11:00:44.755Z,58.78
2022-10-18T11:03:48.524Z,60.27
2022-10-18T11:07:09.036Z,62.61
2022-10-18T11:10:10.599Z,63.34
2022-10-18T11:13:31.936Z,58.58
2022-10-18T11:16:39.234Z,57.60
2022-10-18T11:19:59.303Z,58.45
2022-10-18T11:23:02.661Z,59.65
2022-10-18T11:26:13.487Z,60.90
2022-10-18T11:29:45.351Z,60.41
2022-10-18T11:33:50.104Z,58.41
2022-10-18T11:37:25.926Z,57.66
2022-10-18T11:40:43.616Z,58.51
2022-10-18T11:44:18.942Z,59.67
2022-10-18T11:47:37.002Z,58.79
2022-10-18T11:50:41.451Z,57.51
2022-10-18T11:54:11.014Z,57.29
2022-10-18T11:57:50.551Z,57.55
2022-10-18T12:01:30.204Z,55.49
2022-10-18T12:04:53.198Z,56.12
2022-10-18T12:08:20.898Z,55.96
2022-10-18T12:11:28.109Z,56.36
2022-10-18T12:14:40.843Z,56.27
2022-10-18T12:17:50.395Z,56.34
2022-10-18T12:20:55.445Z,54.55
2022-10-18T12:24:06.130Z,54.92
2022-10-18T12:27:13.538Z,57.35
2022-10-18T12:30:25.137Z,55.33
2022-10-18T12:33:34.337Z,55.56
2022-10-18T12:37:08.796Z,58.52
2022-10-18T12:40:23.531Z,57.13
2022-10-18T12:43:27.714Z,57.47
2022-10-18T12:46:56.133Z,57.62
2022-10-18T12:50:04.386Z,58.13
2022-10-18T12:53:27.689Z,57.29
2022-10-18T12:56:29.247Z,57.70
2022-10-18T12:59:30.774Z,58.37
2022-10-18T13:02:33.498Z,60.66
2022-10-18T13:05:56.080Z,59.72
2022-10-18T13:09:18.429Z,58.89
2022-10-18T13:12:19.941Z,57.17
2022-10-18T13:15:49.954Z,57.82
2022-10-18T13:19:09.064Z,57.21
2022-10-18T13:22:32.206Z,56.51
2022-10-18T13:25:54.992Z,57.59
2022-10-18T13:29:28.386Z,59.20
2022-10-18T13:32:44.577Z,55.17
2022-10-18T13:36:04.008Z,56.29
2022-10-18T13:39:06.170Z,56.01
2022-10-18T13:42:31.576Z,56.84
2022-10-18T13:45:33.379Z,59.35
2022-10-18T13:48:35.035Z,60.16
2022-10-18T13:51:39.254Z,53.98
2022-10-18T13:54:50.925Z,54.03
2022-10-18T13:57:52.466Z,54.96
2022-10-18T14:01:21.971Z,51.90
2022-10-18T14:04:32.434Z,53.13
2022-10-18T14:07:35.437Z,51.81
2022-10-18T14:11:02.044Z,53.02
2022-10-18T14:14:11.631Z,54.72
2022-10-18T14:17:17.788Z,55.49
2022-10-18T14:20:29.885Z,56.26
2022-10-18T14:23:40.081Z,55.90
2022-10-18T14:26:41.684Z,55.17
2022-10-18T14:29:43.616Z,56.15
2022-10-18T14:32:51.570Z,55.73
2022-10-18T14:36:15.391Z,54.17
2022-10-18T14:39:24.059Z,55.57
2022-10-18T14:42:27.325Z,56.07
2022-10-18T14:45:28.984Z,56.13
2022-10-18T14:48:30.598Z,58.15
2022-10-18T14:51:36.676Z,58.01
2022-10-18T14:54:38.769Z,58.36
2022-10-18T14:57:40.508Z,57.28
2022-10-18T15:00:45.075Z,56.65
2022-10-18T15:03:50.187Z,59.74
2022-10-18T15:06:51.806Z,60.94
2022-10-18T15:09:55.056Z,61.71
2022-10-18T15:13:11.384Z,62.45
2022-10-18T15:16:20.597Z,60.27
2022-10-18T15:19:22.145Z,59.94
2022-10-18T15:22:31.697Z,60.80
2022-10-18T15:25:35.909Z,61.44
2022-10-18T15:28:50.106Z,59.71
2022-10-18T15:31:52.541Z,62.08
2022-10-18T15:34:54.782Z,64.05
2022-10-18T15:38:03.564Z,65.14
2022-10-18T15:41:36.896Z,64.09
2022-10-18T15:44:50.941Z,64.94
2022-10-18T15:48:14.014Z,65.56
2022-10-18T15:51:47.928Z,65.85
2022-10-18T15:54:49.551Z,66.10
2022-10-18T15:57:51.220Z,66.16
2022-10-18T16:00:59.098Z,67.30
2022-10-18T16:04:05.382Z,68.25
2022-10-18T16:07:07.111Z,68.83
2022-10-18T16:10:15.038Z,69.87
2022-10-18T16:13:17.880Z,71.83
2022-10-18T16:16:25.640Z,72.51
2022-10-18T16:19:27.266Z,73.49
2022-10-18T16:22:31.117Z,74.64
2022-10-18T16:25:35.105Z,75.82
2022-10-18T16:28:36.869Z,76.44
2022-10-18T16:31:38.465Z,76.66
2022-10-18T16:34:40.105Z,76.76
2022-10-18T16:37:42.270Z,76.06
2022-10-18T16:40:45.226Z,76.19
2022-10-18T16:43:49.526Z,76.39
2022-10-18T16:46:53.976Z,77.08
2022-10-18T16:50:01.518Z,76.79
2022-10-18T16:53:06.608Z,77.34
2022-10-18T16:56:18.100Z,77.80
2022-10-18T16:59:31.703Z,78.43
2022-10-18T17:02:33.484Z,78.02
2022-10-18T17:05:35.509Z,78.42
2022-10-18T17:08:37.186Z,78.55
2022-10-18T17:11:38.969Z,78.76
2022-10-18T17:14:40.664Z,78.86
2022-10-18T17:17:42.375Z,78.91
2022-10-18T17:20:45.049Z,79.18
2022-10-18T17:23:46.780Z,80.22
2022-10-18T17:26:48.460Z,80.81
2022-10-18T17:29:50.105Z,81.26
2022-10-18T17:32:51.742Z,81.63
2022-10-18T17:35:53.587Z,82.09
2022-10-18T17:38:55.849Z,81.97
2022-10-18T17:41:57.690Z,82.39
2022-10-18T17:44:59.420Z,82.53
2022-10-18T17:48:01.037Z,83.44
2022-10-18T17:51:10.068Z,83.21
2022-10-18T17:54:12.657Z,83.30
2022-10-18T17:57:14.289Z,83.55
2022-10-18T18:00:16.239Z,83.99
2022-10-18T18:03:17.871Z,84.29
2022-10-18T18:06:21.179Z,84.66
2022-10-18T18:09:23.407Z,85.03
2022-10-18T18:12:25.373Z,85.74
2022-10-18T18:15:27.200Z,86.26
2022-10-18T18:18:28.813Z,86.43
2022-10-18T18:21:30.720Z,86.87
2022-10-18T18:24:32.550Z,86.95
2022-10-18T18:27:34.187Z,87.06
2022-10-18T18:30:39.901Z,87.13
2022-10-18T18:33:42.250Z,87.32
2022-10-18T18:36:44.832Z,87.68
2022-10-18T18:39:46.478Z,88.29
2022-10-18T18:43:01.808Z,88.36
2022-10-18T18:46:10.872Z,88.44
2022-10-18T18:49:13.450Z,88.88
2022-10-18T18:52:15.182Z,89.11
2022-10-18T18:55:17.072Z,89.12
2022-10-18T18:58:18.949Z,89.32
2022-10-18T19:01:22.127Z,90.35
2022-10-18T19:04:23.802Z,90.40
2022-10-18T19:07:25.442Z,90.37
2022-10-18T19:10:27.659Z,90.35
2022-10-18T19:13:29.291Z,91.21
2022-10-18T19:16:38.728Z,91.21
2022-10-18T19:19:40.997Z,90.90
2022-10-18T19:22:42.680Z,90.61
2022-10-18T19:25:44.723Z,92.14
2022-10-18T19:28:46.550Z,92.75
2022-10-18T19:31:49.321Z,92.30
2022-10-18T19:34:52.237Z,91.99
2022-10-18T19:37:54.038Z,91.91
2022-10-18T19:40:55.978Z,91.55
2022-10-18T19:43:57.633Z,91.36
2022-10-18T19:46:59.883Z,91.64
2022-10-18T19:50:01.684Z,91.73
2022-10-18T19:53:03.801Z,91.78
2022-10-18T19:56:08.513Z,92.52
2022-10-18T19:59:11.981Z,92.52
2022-10-18T20:02:15.177Z,93.08
2022-10-18T20:05:17.149Z,93.70
2022-10-18T20:08:18.831Z,93.92
2022-10-18T20:11:24.490Z,94.66
2022-10-18T20:14:26.322Z,95.31
2022-10-18T20:17:28.321Z,95.48
2022-10-18T20:20:29.994Z,94.24
2022-10-18T20:23:32.628Z,93.84
2022-10-18T20:26:35.898Z,93.96
2022-10-18T20:29:37.741Z,94.28
2022-10-18T20:32:39.869Z,94.71
2022-10-18T20:35:41.970Z,94.79
2022-10-18T20:38:45.840Z,95.27
2022-10-18T20:41:49.513Z,96.54
2022-10-18T20:44:51.170Z,96.55
2022-10-18T20:47:52.899Z,96.34
2022-10-18T20:50:54.773Z,95.61
2022-10-18T20:53:56.791Z,95.20
2022-10-18T20:56:58.530Z,95.04
2022-10-18T21:00:00.221Z,95.67
2022-10-18T21:03:02.381Z,95.47
2022-10-18T21:06:18.568Z,95.63
2022-10-18T21:09:20.426Z,95.93
2022-10-18T21:12:22.271Z,95.81
2022-10-18T21:15:24.075Z,96.34
2022-10-18T21:18:26.739Z,95.94
2022-10-18T21:21:28.349Z,95.69
2022-10-18T21:24:30.613Z,96.22
2022-10-18T21:27:32.400Z,96.21
2022-10-18T21:30:34.120Z,95.87
2022-10-18T21:33:35.865Z,95.77
2022-10-18T21:36:37.687Z,96.39
2022-10-18T21:39:39.253Z,96.44
2022-10-18T21:42:40.887Z,96.60
2022-10-18T21:45:42.467Z,97.26
2022-10-18T21:48:46.420Z,97.39
2022-10-18T21:51:48.138Z,98.18
2022-10-18T21:54:49.787Z,98.50
2022-10-18T21:57:51.513Z,99.50
2022-10-18T22:00:53.160Z,99.54
2022-10-18T22:03:56.781Z,99.50
2022-10-18T22:06:59.522Z,99.41
2022-10-18T22:10:01.109Z,99.63
2022-10-18T22:13:02.783Z,99.42
2022-10-18T22:16:06.799Z,99.96
2022-10-18T22:19:08.641Z,100.00
2022-10-18T22:22:10.435Z,99.90
2022-10-18T22:25:12.044Z,99.91
2022-10-18T22:28:13.702Z,99.98
2022-10-18T22:31:23.348Z,99.79
2022-10-18T22:34:28.982Z,99.80
2022-10-18T22:37:30.744Z,100.00
2022-10-18T22:40:32.638Z,100.00
2022-10-18T22:43:35.210Z,100.00
2022-10-18T22:46:36.816Z,100.00
2022-10-18T22:49:39.201Z,100.00
2022-10-18T22:52:40.938Z,100.00
2022-10-18T22:55:42.533Z,100.00
2022-10-18T22:58:44.240Z,100.00
2022-10-18T23:01:45.901Z,100.00
2022-10-18T23:04:47.537Z,100.00
2022-10-18T23:07:49.505Z,100.00
2022-10-18T23:10:55.470Z,100.00
2022-10-18T23:13:57.176Z,100.00
2022-10-18T23:16:58.790Z,100.00
2022-10-18T23:20:00.359Z,100.00
2022-10-18T23:23:01.955Z,100.00
2022-10-18T23:26:06.262Z,100.00
2022-10-18T23:29:09.040Z,100.00
2022-10-18T23:32:10.741Z,100.00
2022-10-18T23:35:12.292Z,100.00
2022-10-18T23:38:13.924Z,100.00
2022-10-18T23:41:16.553Z,100.00
2022-10-18T23:44:18.132Z,100.00
2022-10-18T23:47:19.807Z,100.00
2022-10-18T23:50:21.402Z,100.00
2022-10-18T23:53:23.090Z,100.00
2022-10-18T23:56:24.705Z,100.00
2022-10-18T23:59:26.518Z,100.00
